Time;durP1;ratioP1;P1;durP2;ratioP2;P2;SDS_P1;SDS_P2;PMS_P1;PMS_P2;Temp;Humidity;BMP_temperature;BMP_pressure;BME280_temperature;BME280_humidity;BME280_pressure;Samples;Min_cycle;Max_cycle;Signal;HPM_P1;HPM_P2
2023/12/09 00:00:13;;;;;;;8.27;3.97;;;;;;;;;;689679;28;955;-69
2023/12/09 00:00:34;;;;;;;8.93;4.10;;;;;;;;;;690547;28;983;-69
2023/12/09 00:00:54;;;;;;;7.93;4.40;;;;;;;;;;689491;28;2503;-69
2023/12/09 00:01:14;;;;;;;8.77;4.03;;;;;;;;;;689136;28;4247;-69
2023/12/09 00:01:41;;;;;;;7.50;4.18;;;;;;;;;;690166;28;932;-69
2023/12/09 00:02:01;;;;;;;6.82;3.92;;;;;;;;;;687990;28;2269;-69
2023/12/09 00:02:21;;;;;;;9.97;4.30;;;;;;;;;;687252;28;1488;-70
2023/12/09 00:02:42;;;;;;;9.43;4.05;;;;;;;;;;687264;28;1181;-70
2023/12/09 00:03:03;;;;;;;9.60;3.97;;;;;;;;;;687375;28;1707;-70
2023/12/09 00:03:23;;;;;;;8.65;4.03;;;;;;;;;;687148;28;1764;-70
2023/12/09 00:03:43;;;;;;;10.50;4.00;;;;;;;;;;687348;28;924;-69
2023/12/09 00:04:04;;;;;;;8.43;4.10;;;;;;;;;;685331;28;4388;-68
2023/12/09 00:04:24;;;;;;;7.00;3.73;;;;;;;;;;689063;28;935;-69
2023/12/09 00:04:44;;;;;;;8.33;4.33;;;;;;;;;;690408;28;904;-69
2023/12/09 00:05:05;;;;;;;8.18;4.13;;;;;;;;;;689145;28;1005;-69
2023/12/09 00:05:26;;;;;;;8.25;4.57;;;;;;;;;;690070;28;805;-69
2023/12/09 00:05:46;;;;;;;9.13;4.20;;;;;;;;;;690216;28;928;-69
2023/12/09 00:06:06;;;;;;;9.33;3.93;;;;;;;;;;688944;28;1989;-69
2023/12/09 00:06:27;;;;;;;7.77;4.00;;;;;;;;;;689963;28;797;-70
2023/12/09 00:06:48;;;;;;;7.95;3.92;;;;;;;;;;690196;28;853;-70
2023/12/09 00:07:09;;;;;;;8.18;3.88;;;;;;;;;;687974;28;4322;-69
2023/12/09 00:07:30;;;;;;;8.77;3.95;;;;;;;;;;690058;28;912;-69
2023/12/09 00:07:51;;;;;;;7.03;4.00;;;;;;;;;;690339;28;857;-69
2023/12/09 00:08:12;;;;;;;7.93;4.15;;;;;;;;;;688484;28;1772;-69
2023/12/09 00:08:33;;;;;;;8.73;4.28;;;;;;;;;;690172;28;750;-69
2023/12/09 00:08:54;;;;;;;9.43;3.92;;;;;;;;;;690514;28;809;-69
2023/12/09 00:09:15;;;;;;;9.27;4.13;;;;;;;;;;688954;28;833;-69
2023/12/09 00:09:36;;;;;;;8.13;3.95;;;;;;;;;;687485;28;861;-69
2023/12/09 00:09:57;;;;;;;7.95;3.65;;;;;;;;;;689275;28;2273;-69
2023/12/09 00:10:18;;;;;;;8.60;4.07;;;;;;;;;;689369;28;4295;-70
2023/12/09 00:10:38;;;;;;;11.43;4.32;;;;;;;;;;689742;28;1419;-69
2023/12/09 00:10:58;;;;;;;10.07;4.37;;;;;;;;;;688958;28;1938;-69
2023/12/09 00:11:20;;;;;;;7.73;4.20;;;;;;;;;;690245;28;924;-69
2023/12/09 00:11:40;;;;;;;8.80;3.83;;;;;;;;;;689934;28;895;-69
2023/12/09 00:12:00;;;;;;;10.43;3.90;;;;;;;;;;686952;28;2210;-69
2023/12/09 00:12:20;;;;;;;9.37;3.90;;;;;;;;;;685863;28;1157;-69
2023/12/09 00:12:41;;;;;;;7.90;3.60;;;;;;;;;;687417;28;934;-69
2023/12/09 00:13:01;;;;;;;7.72;3.55;;;;;;;;;;687084;28;4333;-69
2023/12/09 00:13:21;;;;;;;6.73;3.80;;;;;;;;;;689256;28;782;-69
2023/12/09 00:13:41;;;;;;;8.70;3.60;;;;;;;;;;687746;28;908;-70
2023/12/09 00:14:03;;;;;;;9.50;3.60;;;;;;;;;;689076;28;1769;-69
2023/12/09 00:14:24;;;;;;;6.78;3.80;;;;;;;;;;692236;28;956;-68
2023/12/09 00:14:44;;;;;;;6.60;3.80;;;;;;;;;;690291;28;983;-69
2023/12/09 00:15:04;;;;;;;6.83;3.67;;;;;;;;;;688974;28;1791;-69
2023/12/09 00:15:25;;;;;;;8.45;4.20;;;;;;;;;;690163;28;837;-69
2023/12/09 00:15:45;;;;;;;8.70;4.07;;;;;;;;;;690222;28;844;-68
2023/12/09 00:16:05;;;;;;;8.40;4.17;;;;;;;;;;688901;28;4255;-68
2023/12/09 00:16:26;;;;;;;8.48;3.90;;;;;;;;;;690425;28;924;-69
2023/12/09 00:16:46;;;;;;;6.70;3.67;;;;;;;;;;689998;28;975;-69
2023/12/09 00:17:07;;;;;;;7.63;3.75;;;;;;;;;;688944;28;1478;-69
2023/12/09 00:17:27;;;;;;;7.20;3.60;;;;;;;;;;690569;28;915;-69
2023/12/09 00:17:47;;;;;;;8.50;3.90;;;;;;;;;;690522;28;741;-69
2023/12/09 00:18:08;;;;;;;7.57;3.67;;;;;;;;;;688475;28;2174;-70
2023/12/09 00:18:28;;;;;;;7.57;3.77;;;;;;;;;;690359;28;782;-69
2023/12/09 00:18:48;;;;;;;6.38;3.30;;;;;;;;;;690652;28;833;-69
2023/12/09 00:19:09;;;;;;;8.47;3.70;;;;;;;;;;688501;28;4387;-69
2023/12/09 00:19:29;;;;;;;8.40;3.90;;;;;;;;;;690188;28;893;-69
2023/12/09 00:19:49;;;;;;;6.53;3.67;;;;;;;;;;690480;28;786;-69
2023/12/09 00:20:10;;;;;;;7.77;3.67;;;;;;;;;;688436;28;2033;-69
2023/12/09 00:20:30;;;;;;;6.88;3.60;;;;;;;;;;690044;28;940;-69
2023/12/09 00:20:50;;;;;;;8.67;3.67;;;;;;;;;;689875;28;797;-69
2023/12/09 00:21:10;;;;;;;9.97;3.70;;;;;;;;;;688840;28;1705;-69
2023/12/09 00:21:31;;;;;;;9.80;3.90;;;;;;;;;;687663;28;1440;-69
2023/12/09 00:21:51;;;;;;;7.40;3.63;;;;;;;;;;685004;28;814;-69
2023/12/09 00:22:11;;;;;;;6.73;3.50;;;;;;;;;;682362;28;4604;-70
2023/12/09 00:22:32;;;;;;;8.05;3.90;;;;;;;;;;684527;28;1329;-69
2023/12/09 00:22:52;;;;;;;8.57;4.17;;;;;;;;;;684977;28;822;-69
2023/12/09 00:23:12;;;;;;;6.93;3.63;;;;;;;;;;683479;28;1777;-70
2023/12/09 00:23:33;;;;;;;6.37;3.50;;;;;;;;;;686807;28;3273;-69
2023/12/09 00:23:53;;;;;;;6.83;3.60;;;;;;;;;;690431;28;892;-69
2023/12/09 00:24:13;;;;;;;7.15;3.80;;;;;;;;;;688973;28;1723;-69
2023/12/09 00:24:33;;;;;;;7.80;3.77;;;;;;;;;;690330;28;884;-69
2023/12/09 00:24:54;;;;;;;6.97;3.90;;;;;;;;;;690100;28;904;-69
2023/12/09 00:25:14;;;;;;;7.00;3.67;;;;;;;;;;688301;28;4406;-69
2023/12/09 00:25:34;;;;;;;8.00;3.63;;;;;;;;;;690437;28;980;-69
2023/12/09 00:25:54;;;;;;;9.27;4.20;;;;;;;;;;690503;28;881;-70
2023/12/09 00:26:15;;;;;;;8.03;3.90;;;;;;;;;;689654;28;896;-69
2023/12/09 00:26:36;;;;;;;7.20;3.50;;;;;;;;;;690019;28;944;-70
2023/12/09 00:26:56;;;;;;;7.57;3.92;;;;;;;;;;689031;28;1773;-70
2023/12/09 00:27:16;;;;;;;8.20;4.40;;;;;;;;;;687434;28;929;-69
2023/12/09 00:27:37;;;;;;;7.93;3.97;;;;;;;;;;687170;28;1483;-69
2023/12/09 00:27:58;;;;;;;7.63;3.90;;;;;;;;;;683251;28;1817;-69
2023/12/09 00:28:18;;;;;;;7.93;3.80;;;;;;;;;;686953;28;4352;-69
2023/12/09 00:28:38;;;;;;;9.47;3.73;;;;;;;;;;687310;28;900;-69
2023/12/09 00:28:58;;;;;;;9.40;3.93;;;;;;;;;;686076;28;1851;-70
2023/12/09 00:29:19;;;;;;;8.53;4.10;;;;;;;;;;687469;28;917;-69
2023/12/09 00:29:39;;;;;;;8.30;3.87;;;;;;;;;;689883;28;933;-70
2023/12/09 00:29:59;;;;;;;8.77;3.92;;;;;;;;;;689142;28;2229;-70
2023/12/09 00:30:19;;;;;;;9.10;4.03;;;;;;;;;;690490;28;877;-70
2023/12/09 00:30:40;;;;;;;8.70;4.20;;;;;;;;;;689416;28;845;-70
2023/12/09 00:31:00;;;;;;;6.85;3.55;;;;;;;;;;688462;28;4277;-70
2023/12/09 00:31:20;;;;;;;6.43;3.80;;;;;;;;;;689930;28;1368;-69
2023/12/09 00:31:41;;;;;;;7.03;3.70;;;;;;;;;;689870;28;1440;-69
2023/12/09 00:32:02;;;;;;;6.65;3.60;;;;;;;;;;689504;28;1750;-69
2023/12/09 00:32:22;;;;;;;7.03;3.70;;;;;;;;;;691860;28;947;-70
2023/12/09 00:32:42;;;;;;;7.07;3.67;;;;;;;;;;689937;28;861;-69
2023/12/09 00:33:02;;;;;;;7.13;3.60;;;;;;;;;;688791;28;1892;-69
2023/12/09 00:33:23;;;;;;;8.05;3.30;;;;;;;;;;689946;28;885;-70
2023/12/09 00:33:43;;;;;;;8.27;3.67;;;;;;;;;;689233;28;801;-69
2023/12/09 00:34:03;;;;;;;8.40;3.50;;;;;;;;;;689581;28;4615;-69
2023/12/09 00:34:23;;;;;;;8.13;3.63;;;;;;;;;;690521;28;849;-69
2023/12/09 00:34:44;;;;;;;7.87;3.83;;;;;;;;;;688914;28;852;-69
2023/12/09 00:35:04;;;;;;;7.27;3.73;;;;;;;;;;689181;28;1180;-69
2023/12/09 00:35:24;;;;;;;7.43;3.60;;;;;;;;;;690588;28;905;-69
2023/12/09 00:35:45;;;;;;;6.90;3.67;;;;;;;;;;690152;28;967;-70
2023/12/09 00:36:05;;;;;;;10.17;4.10;;;;;;;;;;688623;28;2313;-69
2023/12/09 00:36:25;;;;;;;9.65;4.10;;;;;;;;;;690309;28;896;-69
2023/12/09 00:36:45;;;;;;;7.53;3.67;;;;;;;;;;690251;28;943;-69
2023/12/09 00:37:06;;;;;;;7.53;4.13;;;;;;;;;;688404;28;4272;-69
2023/12/09 00:37:26;;;;;;;7.25;3.70;;;;;;;;;;689873;28;778;-70
2023/12/09 00:37:46;;;;;;;7.13;3.73;;;;;;;;;;690308;28;793;-69
2023/12/09 00:38:07;;;;;;;6.90;3.23;;;;;;;;;;689061;28;2537;-70
2023/12/09 00:38:27;;;;;;;7.07;3.30;;;;;;;;;;690397;28;869;-69
2023/12/09 00:38:47;;;;;;;6.10;3.30;;;;;;;;;;690231;28;1201;-69
2023/12/09 00:39:07;;;;;;;7.30;3.37;;;;;;;;;;690273;28;1447;-69
2023/12/09 00:39:28;;;;;;;9.50;3.60;;;;;;;;;;690496;28;806;-69
2023/12/09 00:39:48;;;;;;;8.50;3.90;;;;;;;;;;690456;28;959;-69
2023/12/09 00:40:09;;;;;;;7.07;3.80;;;;;;;;;;688053;28;4476;-70
2023/12/09 00:40:29;;;;;;;6.93;3.45;;;;;;;;;;690602;28;1000;-69
2023/12/09 00:40:50;;;;;;;6.53;3.30;;;;;;;;;;690455;28;897;-69
2023/12/09 00:41:10;;;;;;;6.53;3.20;;;;;;;;;;689304;28;1671;-69
2023/12/09 00:41:30;;;;;;;7.27;3.40;;;;;;;;;;690228;28;904;-69
2023/12/09 00:41:50;;;;;;;7.20;3.55;;;;;;;;;;690315;28;857;-68
2023/12/09 00:42:11;;;;;;;6.77;3.47;;;;;;;;;;688880;28;5916;-69
2023/12/09 00:42:31;;;;;;;7.77;3.40;;;;;;;;;;690444;28;995;-69
2023/12/09 00:42:51;;;;;;;7.60;3.45;;;;;;;;;;687418;28;1181;-69
2023/12/09 00:43:11;;;;;;;6.93;3.53;;;;;;;;;;685125;28;4270;-70
2023/12/09 00:43:32;;;;;;;7.10;3.63;;;;;;;;;;687364;28;960;-69
2023/12/09 00:43:52;;;;;;;7.25;3.80;;;;;;;;;;687533;28;917;-69
2023/12/09 00:44:14;;;;;;;7.27;3.60;;;;;;;;;;686150;28;2114;-70
2023/12/09 00:44:34;;;;;;;7.30;3.40;;;;;;;;;;684711;28;1523;-68
2023/12/09 00:44:54;;;;;;;7.90;3.73;;;;;;;;;;685879;28;932;-69
2023/12/09 00:45:15;;;;;;;7.40;3.50;;;;;;;;;;685722;28;2266;-69
2023/12/09 00:45:35;;;;;;;7.95;3.33;;;;;;;;;;685870;28;1162;-69
2023/12/09 00:45:55;;;;;;;7.90;3.63;;;;;;;;;;686010;28;905;-69
2023/12/09 00:46:15;;;;;;;7.57;3.73;;;;;;;;;;684283;28;4636;-69
2023/12/09 00:46:35;;;;;;;7.95;3.90;;;;;;;;;;689882;28;983;-69
2023/12/09 00:46:56;;;;;;;7.90;4.00;;;;;;;;;;690113;28;935;-70
2023/12/09 00:47:16;;;;;;;7.40;3.63;;;;;;;;;;688935;28;2310;-69
2023/12/09 00:47:36;;;;;;;7.53;3.47;;;;;;;;;;690120;28;722;-69
2023/12/09 00:47:57;;;;;;;8.03;3.60;;;;;;;;;;689088;28;2452;-69
2023/12/09 00:48:17;;;;;;;8.10;3.73;;;;;;;;;;690438;28;937;-69
2023/12/09 00:48:37;;;;;;;8.07;3.65;;;;;;;;;;689903;28;864;-69
2023/12/09 00:48:57;;;;;;;9.27;4.23;;;;;;;;;;687038;28;1772;-69
2023/12/09 00:49:18;;;;;;;7.80;3.90;;;;;;;;;;689875;28;4234;-68
2023/12/09 00:49:38;;;;;;;6.63;3.42;;;;;;;;;;689970;28;1071;-69
2023/12/09 00:49:58;;;;;;;7.57;3.47;;;;;;;;;;688892;28;1493;-69
2023/12/09 00:50:18;;;;;;;8.03;3.50;;;;;;;;;;690147;28;785;-69
2023/12/09 00:50:39;;;;;;;7.40;3.60;;;;;;;;;;690080;28;900;-69
2023/12/09 00:50:59;;;;;;;7.38;3.47;;;;;;;;;;689287;28;1965;-68
2023/12/09 00:51:19;;;;;;;7.00;3.27;;;;;;;;;;689836;28;2636;-69
2023/12/09 00:51:39;;;;;;;8.97;3.43;;;;;;;;;;689742;28;979;-70
2023/12/09 00:52:00;;;;;;;7.70;3.60;;;;;;;;;;688368;28;4299;-69
2023/12/09 00:52:20;;;;;;;6.57;3.30;;;;;;;;;;687453;28;1105;-70
2023/12/09 00:52:40;;;;;;;7.60;3.83;;;;;;;;;;683987;28;1134;-69
2023/12/09 00:53:00;;;;;;;7.97;3.90;;;;;;;;;;683918;28;1821;-69
2023/12/09 00:53:21;;;;;;;7.63;3.97;;;;;;;;;;684948;28;766;-69
2023/12/09 00:53:41;;;;;;;8.70;3.47;;;;;;;;;;684293;28;1234;-70
2023/12/09 00:54:01;;;;;;;8.93;3.43;;;;;;;;;;683329;28;2463;-69
2023/12/09 00:54:21;;;;;;;7.25;3.55;;;;;;;;;;687451;28;948;-71
2023/12/09 00:54:42;;;;;;;8.80;3.77;;;;;;;;;;687189;28;1555;-70
2023/12/09 00:55:02;;;;;;;7.40;3.67;;;;;;;;;;685887;28;4342;-69
2023/12/09 00:55:22;;;;;;;7.07;3.47;;;;;;;;;;687444;28;849;-68
2023/12/09 00:55:42;;;;;;;6.93;3.40;;;;;;;;;;687156;28;1035;-69
2023/12/09 00:56:03;;;;;;;7.70;3.80;;;;;;;;;;688713;28;2273;-68
2023/12/09 00:56:23;;;;;;;8.25;3.58;;;;;;;;;;690234;28;833;-69
2023/12/09 00:56:43;;;;;;;7.23;3.60;;;;;;;;;;690398;28;904;-70
2023/12/09 00:57:04;;;;;;;7.97;3.70;;;;;;;;;;688786;28;1683;-69
2023/12/09 00:57:24;;;;;;;9.48;3.50;;;;;;;;;;690535;28;793;-69
2023/12/09 00:57:44;;;;;;;7.17;3.40;;;;;;;;;;690535;28;960;-69
2023/12/09 00:58:04;;;;;;;7.22;3.38;;;;;;;;;;688007;28;4291;-69
2023/12/09 00:58:26;;;;;;;6.93;3.20;;;;;;;;;;690010;28;901;-69
2023/12/09 00:58:46;;;;;;;6.28;3.03;;;;;;;;;;689985;28;840;-69
2023/12/09 00:59:07;;;;;;;7.77;3.23;;;;;;;;;;688329;28;1985;-71
2023/12/09 00:59:27;;;;;;;7.93;3.40;;;;;;;;;;689366;28;932;-69
2023/12/09 00:59:47;;;;;;;7.22;3.60;;;;;;;;;;690081;28;897;-70
2023/12/09 01:00:08;;;;;;;7.90;3.50;;;;;;;;;;688272;28;1817;-69
2023/12/09 01:00:29;;;;;;;8.38;3.38;;;;;;;;;;690317;28;1019;-69
2023/12/09 01:00:49;;;;;;;7.50;3.50;;;;;;;;;;690568;28;912;-70
2023/12/09 01:01:09;;;;;;;8.30;3.53;;;;;;;;;;687893;28;4283;-69
2023/12/09 01:01:29;;;;;;;8.77;3.63;;;;;;;;;;690123;28;1245;-71
2023/12/09 01:01:50;;;;;;;8.10;3.60;;;;;;;;;;690237;28;951;-69
2023/12/09 01:02:10;;;;;;;8.40;3.57;;;;;;;;;;688472;28;1788;-69
2023/12/09 01:02:31;;;;;;;9.73;3.50;;;;;;;;;;689847;28;920;-70
2023/12/09 01:02:51;;;;;;;9.63;3.20;;;;;;;;;;690196;28;834;-69
2023/12/09 01:03:12;;;;;;;8.00;3.17;;;;;;;;;;688431;28;1201;-69
2023/12/09 01:03:32;;;;;;;9.43;3.30;;;;;;;;;;688220;28;912;-69
2023/12/09 01:03:52;;;;;;;9.10;3.60;;;;;;;;;;688779;28;832;-69
2023/12/09 01:04:12;;;;;;;9.03;3.80;;;;;;;;;;687541;28;4420;-69
2023/12/09 01:04:33;;;;;;;8.57;3.40;;;;;;;;;;688391;28;861;-69
2023/12/09 01:04:53;;;;;;;9.47;3.70;;;;;;;;;;689956;28;932;-69
2023/12/09 01:05:13;;;;;;;8.10;3.80;;;;;;;;;;689575;28;1864;-69
2023/12/09 01:05:33;;;;;;;6.27;3.23;;;;;;;;;;690549;28;1057;-70
2023/12/09 01:05:53;;;;;;;9.13;3.57;;;;;;;;;;690446;28;817;-69
2023/12/09 01:06:14;;;;;;;8.07;3.70;;;;;;;;;;688919;28;1953;-69
2023/12/09 01:06:34;;;;;;;6.43;3.10;;;;;;;;;;689995;28;742;-69
2023/12/09 01:06:54;;;;;;;6.68;3.35;;;;;;;;;;690458;28;925;-68
2023/12/09 01:07:14;;;;;;;9.27;3.60;;;;;;;;;;688675;28;4280;-69
2023/12/09 01:07:35;;;;;;;7.40;3.57;;;;;;;;;;690333;28;937;-68
2023/12/09 01:07:55;;;;;;;9.73;3.60;;;;;;;;;;690130;28;806;-71
2023/12/09 01:08:15;;;;;;;9.63;3.73;;;;;;;;;;689048;28;2040;-68
2023/12/09 01:08:35;;;;;;;7.97;3.60;;;;;;;;;;689880;28;1147;-70
2023/12/09 01:08:56;;;;;;;6.57;3.30;;;;;;;;;;690499;28;925;-69
2023/12/09 01:09:16;;;;;;;7.65;3.55;;;;;;;;;;689185;28;1593;-69
2023/12/09 01:09:36;;;;;;;7.77;3.53;;;;;;;;;;689956;28;809;-69
2023/12/09 01:09:56;;;;;;;6.90;3.50;;;;;;;;;;690261;28;912;-69
2023/12/09 01:10:17;;;;;;;6.32;3.40;;;;;;;;;;687984;28;4355;-68
2023/12/09 01:10:37;;;;;;;9.90;3.70;;;;;;;;;;689585;28;896;-69
2023/12/09 01:10:57;;;;;;;10.93;3.67;;;;;;;;;;689865;28;1926;-70
2023/12/09 01:11:17;;;;;;;8.03;3.17;;;;;;;;;;689097;28;1445;-69
2023/12/09 01:11:37;;;;;;;7.82;3.33;;;;;;;;;;689917;28;861;-69
2023/12/09 01:11:58;;;;;;;8.37;3.60;;;;;;;;;;689300;28;2581;-69
2023/12/09 01:12:18;;;;;;;8.23;3.53;;;;;;;;;;690001;28;805;-69
2023/12/09 01:12:38;;;;;;;7.38;3.50;;;;;;;;;;689683;28;947;-69
2023/12/09 01:12:58;;;;;;;7.40;3.17;;;;;;;;;;689360;28;1026;-69
2023/12/09 01:13:19;;;;;;;7.97;3.43;;;;;;;;;;687826;28;4201;-70
2023/12/09 01:13:39;;;;;;;8.00;3.40;;;;;;;;;;689788;28;765;-69
2023/12/09 01:13:59;;;;;;;7.50;3.38;;;;;;;;;;689179;28;2116;-70
2023/12/09 01:14:19;;;;;;;8.00;3.40;;;;;;;;;;690363;28;833;-69
2023/12/09 01:14:40;;;;;;;8.07;3.30;;;;;;;;;;689577;28;1599;-69
2023/12/09 01:15:00;;;;;;;7.47;3.03;;;;;;;;;;688637;28;2359;-69
2023/12/09 01:15:20;;;;;;;7.07;3.17;;;;;;;;;;690229;28;1224;-69
2023/12/09 01:15:40;;;;;;;6.70;3.47;;;;;;;;;;690131;28;774;-69
2023/12/09 01:16:01;;;;;;;7.55;3.58;;;;;;;;;;688586;28;4534;-69
2023/12/09 01:16:21;;;;;;;7.30;3.40;;;;;;;;;;687165;28;1446;-69
2023/12/09 01:16:42;;;;;;;7.80;3.20;;;;;;;;;;690178;28;956;-68
2023/12/09 01:17:02;;;;;;;7.97;3.22;;;;;;;;;;688985;28;2468;-69
2023/12/09 01:17:22;;;;;;;7.17;3.30;;;;;;;;;;690291;28;821;-69
2023/12/09 01:17:42;;;;;;;7.07;3.20;;;;;;;;;;689828;28;1019;-69
2023/12/09 01:18:03;;;;;;;6.67;3.37;;;;;;;;;;687786;28;2524;-69
2023/12/09 01:18:23;;;;;;;7.80;3.33;;;;;;;;;;690087;28;920;-69
2023/12/09 01:18:43;;;;;;;7.10;3.30;;;;;;;;;;690037;28;1035;-69
2023/12/09 01:19:03;;;;;;;6.80;3.40;;;;;;;;;;687635;28;4381;-69
2023/12/09 01:19:24;;;;;;;6.63;3.40;;;;;;;;;;690233;28;901;-69
2023/12/09 01:19:44;;;;;;;7.10;3.50;;;;;;;;;;689380;28;3645;-69
2023/12/09 01:20:04;;;;;;;8.20;3.60;;;;;;;;;;688614;28;1862;-69
2023/12/09 01:20:25;;;;;;;8.13;3.40;;;;;;;;;;690072;28;777;-69
2023/12/09 01:20:45;;;;;;;8.00;3.23;;;;;;;;;;690395;28;944;-68
2023/12/09 01:21:05;;;;;;;8.07;3.20;;;;;;;;;;688444;28;1335;-69
2023/12/09 01:21:26;;;;;;;8.10;3.57;;;;;;;;;;690274;28;849;-69
2023/12/09 01:21:46;;;;;;;9.40;3.40;;;;;;;;;;690045;28;873;-69
2023/12/09 01:22:06;;;;;;;7.63;3.10;;;;;;;;;;688096;28;4298;-70
2023/12/09 01:22:26;;;;;;;6.53;3.10;;;;;;;;;;690270;28;844;-69
2023/12/09 01:22:47;;;;;;;8.55;3.20;;;;;;;;;;690583;28;1154;-68
2023/12/09 01:23:07;;;;;;;7.37;3.40;;;;;;;;;;687914;28;1999;-68
2023/12/09 01:23:27;;;;;;;7.50;3.10;;;;;;;;;;690659;28;1123;-69
2023/12/09 01:23:48;;;;;;;8.23;3.30;;;;;;;;;;690430;28;873;-69
2023/12/09 01:24:08;;;;;;;7.80;3.43;;;;;;;;;;689059;28;971;-69
2023/12/09 01:24:28;;;;;;;7.80;3.30;;;;;;;;;;690215;28;825;-69
2023/12/09 01:24:49;;;;;;;8.37;3.47;;;;;;;;;;689977;28;964;-68
2023/12/09 01:25:09;;;;;;;7.80;3.40;;;;;;;;;;688359;28;4469;-69
2023/12/09 01:25:29;;;;;;;7.53;3.65;;;;;;;;;;690362;28;996;-69
2023/12/09 01:25:49;;;;;;;7.70;3.43;;;;;;;;;;690072;28;885;-69
2023/12/09 01:26:10;;;;;;;6.23;3.30;;;;;;;;;;688748;28;1063;-69
2023/12/09 01:26:30;;;;;;;7.40;3.33;;;;;;;;;;689978;28;813;-69
2023/12/09 01:26:51;;;;;;;7.37;3.20;;;;;;;;;;690228;28;818;-69
2023/12/09 01:27:11;;;;;;;6.72;3.05;;;;;;;;;;688694;28;1441;-69
2023/12/09 01:27:31;;;;;;;8.70;3.23;;;;;;;;;;689587;28;821;-69
2023/12/09 01:27:52;;;;;;;11.17;3.67;;;;;;;;;;687465;28;1008;-69
2023/12/09 01:28:12;;;;;;;8.00;3.50;;;;;;;;;;688510;28;4348;-69
2023/12/09 01:28:32;;;;;;;7.20;3.33;;;;;;;;;;689841;28;774;-69
2023/12/09 01:28:53;;;;;;;7.15;3.10;;;;;;;;;;687720;28;861;-69
2023/12/09 01:29:13;;;;;;;8.17;3.10;;;;;;;;;;686139;28;1679;-69
2023/12/09 01:29:33;;;;;;;8.57;3.43;;;;;;;;;;688467;28;885;-69
2023/12/09 01:29:54;;;;;;;7.47;3.40;;;;;;;;;;690095;28;1120;-69
2023/12/09 01:30:14;;;;;;;7.57;3.50;;;;;;;;;;688283;28;2349;-69
2023/12/09 01:30:34;;;;;;;6.67;3.63;;;;;;;;;;690962;28;948;-69
2023/12/09 01:30:54;;;;;;;6.90;2.97;;;;;;;;;;690379;28;1914;-69
2023/12/09 01:31:15;;;;;;;7.07;2.90;;;;;;;;;;688146;28;4365;-69
2023/12/09 01:31:35;;;;;;;6.23;3.00;;;;;;;;;;689407;28;841;-71
2023/12/09 01:31:55;;;;;;;6.90;3.10;;;;;;;;;;690276;28;874;-69
2023/12/09 01:32:16;;;;;;;7.63;3.30;;;;;;;;;;688631;28;1947;-70
2023/12/09 01:32:36;;;;;;;6.68;3.20;;;;;;;;;;689809;28;897;-69
2023/12/09 01:32:57;;;;;;;7.30;3.53;;;;;;;;;;688807;28;1052;-68
2023/12/09 01:33:17;;;;;;;9.30;3.37;;;;;;;;;;688989;28;1771;-69
2023/12/09 01:33:38;;;;;;;7.57;3.10;;;;;;;;;;689753;28;900;-69
2023/12/09 01:33:58;;;;;;;6.93;2.88;;;;;;;;;;690249;28;786;-69
2023/12/09 01:34:18;;;;;;;6.67;3.00;;;;;;;;;;688693;28;4524;-70
2023/12/09 01:34:40;;;;;;;7.53;3.10;;;;;;;;;;689391;28;848;-70
2023/12/09 01:35:01;;;;;;;6.85;3.13;;;;;;;;;;689795;28;2506;-69
2023/12/09 01:35:21;;;;;;;7.53;3.20;;;;;;;;;;690728;28;904;-69
2023/12/09 01:35:41;;;;;;;6.87;3.10;;;;;;;;;;689993;28;889;-69
2023/12/09 01:36:01;;;;;;;7.37;2.97;;;;;;;;;;689396;28;1594;-69
2023/12/09 01:36:22;;;;;;;8.40;3.42;;;;;;;;;;690945;28;805;-69
2023/12/09 01:36:42;;;;;;;9.37;3.27;;;;;;;;;;690639;28;928;-69
2023/12/09 01:37:02;;;;;;;9.10;3.55;;;;;;;;;;688761;28;5123;-69
2023/12/09 01:37:23;;;;;;;8.63;3.20;;;;;;;;;;690760;28;924;-69
2023/12/09 01:37:43;;;;;;;6.80;3.00;;;;;;;;;;690561;28;940;-68
2023/12/09 01:38:03;;;;;;;6.75;3.20;;;;;;;;;;689449;28;917;-69
2023/12/09 01:38:23;;;;;;;7.70;3.10;;;;;;;;;;690852;28;956;-69
2023/12/09 01:38:44;;;;;;;9.53;3.23;;;;;;;;;;690883;28;1268;-69
2023/12/09 01:39:04;;;;;;;8.27;3.00;;;;;;;;;;689601;28;2181;-69
2023/12/09 01:39:24;;;;;;;8.37;3.10;;;;;;;;;;690948;28;908;-70
2023/12/09 01:39:44;;;;;;;7.80;3.33;;;;;;;;;;690325;28;1338;-69
2023/12/09 01:40:05;;;;;;;6.97;3.10;;;;;;;;;;687779;28;4610;-69
2023/12/09 01:40:25;;;;;;;8.00;3.10;;;;;;;;;;690734;28;908;-69
2023/12/09 01:40:53;;;;;;;7.73;3.40;;;;;;;;;;690692;28;912;-69
2023/12/09 01:41:13;;;;;;;6.97;2.95;;;;;;;;;;689219;28;1742;-69
2023/12/09 01:41:34;;;;;;;6.72;2.92;;;;;;;;;;690662;28;794;-69
2023/12/09 01:41:54;;;;;;;7.07;2.87;;;;;;;;;;690615;28;1030;-69
2023/12/09 01:42:14;;;;;;;7.57;3.10;;;;;;;;;;688980;28;5941;-69
2023/12/09 01:42:34;;;;;;;6.37;3.20;;;;;;;;;;690483;28;1198;-69
2023/12/09 01:42:54;;;;;;;7.80;3.20;;;;;;;;;;689327;28;1165;-69
2023/12/09 01:43:16;;;;;;;7.93;3.13;;;;;;;;;;685159;28;4361;-70
2023/12/09 01:43:36;;;;;;;6.43;2.90;;;;;;;;;;687086;28;1007;-70
2023/12/09 01:43:56;;;;;;;6.45;2.90;;;;;;;;;;685322;28;1196;-69
2023/12/09 01:44:17;;;;;;;6.57;3.13;;;;;;;;;;686325;28;2313;-69
2023/12/09 01:44:37;;;;;;;8.47;3.27;;;;;;;;;;688630;28;944;-70
2023/12/09 01:44:57;;;;;;;7.35;2.90;;;;;;;;;;689878;28;840;-69
2023/12/09 01:45:18;;;;;;;7.50;3.07;;;;;;;;;;689174;28;2420;-69
2023/12/09 01:45:38;;;;;;;7.57;3.10;;;;;;;;;;687747;28;975;-68
2023/12/09 01:46:03;;;;;;;7.07;2.80;;;;;;;;;;690341;28;872;-69
2023/12/09 01:46:23;;;;;;;8.55;3.20;;;;;;;;;;689853;28;4798;-69
2023/12/09 01:46:44;;;;;;;6.70;3.00;;;;;;;;;;690709;28;806;-69
2023/12/09 01:47:04;;;;;;;8.13;3.28;;;;;;;;;;689288;28;1913;-69
2023/12/09 01:47:25;;;;;;;9.45;3.47;;;;;;;;;;689904;28;2741;-69
2023/12/09 01:47:47;;;;;;;9.03;3.30;;;;;;;;;;690773;28;845;-68
2023/12/09 01:48:08;;;;;;;8.60;3.20;;;;;;;;;;688976;28;1955;-68
2023/12/09 01:48:28;;;;;;;7.50;2.80;;;;;;;;;;690012;28;1018;-69
2023/12/09 01:48:48;;;;;;;7.93;2.93;;;;;;;;;;690695;28;789;-69
2023/12/09 01:49:10;;;;;;;7.50;2.95;;;;;;;;;;689416;28;4232;-69
2023/12/09 01:49:31;;;;;;;8.02;2.92;;;;;;;;;;690213;28;837;-69
2023/12/09 01:49:51;;;;;;;7.70;2.88;;;;;;;;;;690248;28;1314;-69
2023/12/09 01:50:11;;;;;;;7.32;2.78;;;;;;;;;;689266;28;1875;-69
2023/12/09 01:50:32;;;;;;;7.47;3.00;;;;;;;;;;690368;28;809;-69
2023/12/09 01:50:52;;;;;;;5.93;2.90;;;;;;;;;;690636;28;1963;-69
2023/12/09 01:51:12;;;;;;;7.75;3.00;;;;;;;;;;689278;28;998;-69
2023/12/09 01:51:34;;;;;;;8.50;3.00;;;;;;;;;;690229;28;951;-70
2023/12/09 01:51:54;;;;;;;7.35;2.80;;;;;;;;;;690873;28;932;-69
2023/12/09 01:52:14;;;;;;;8.13;2.90;;;;;;;;;;688789;28;4440;-69
2023/12/09 01:52:35;;;;;;;7.80;2.80;;;;;;;;;;690173;28;789;-70
2023/12/09 01:52:56;;;;;;;6.80;2.63;;;;;;;;;;690842;28;872;-69
2023/12/09 01:53:16;;;;;;;5.88;2.70;;;;;;;;;;690196;28;2552;-69
2023/12/09 01:53:37;;;;;;;6.60;2.70;;;;;;;;;;690599;28;932;-69
2023/12/09 01:53:57;;;;;;;7.13;2.90;;;;;;;;;;690491;28;1097;-69
2023/12/09 01:54:17;;;;;;;6.43;2.80;;;;;;;;;;689017;28;1740;-69
2023/12/09 01:54:38;;;;;;;7.05;2.60;;;;;;;;;;690266;28;880;-69
2023/12/09 01:54:59;;;;;;;6.73;3.10;;;;;;;;;;690634;28;841;-68
2023/12/09 01:55:19;;;;;;;6.45;3.17;;;;;;;;;;688972;28;5124;-69
2023/12/09 01:55:40;;;;;;;6.07;2.77;;;;;;;;;;690365;28;912;-70
2023/12/09 01:56:05;;;;;;;7.85;2.90;;;;;;;;;;689464;28;2011;-69
2023/12/09 01:56:26;;;;;;;6.97;3.10;;;;;;;;;;687480;28;936;-69
2023/12/09 01:56:46;;;;;;;7.87;2.97;;;;;;;;;;687213;28;935;-69
2023/12/09 01:57:06;;;;;;;8.33;2.80;;;;;;;;;;683770;28;2450;-69
2023/12/09 01:57:27;;;;;;;8.57;2.77;;;;;;;;;;685277;28;781;-69
2023/12/09 01:57:48;;;;;;;6.40;2.80;;;;;;;;;;684919;28;960;-69
2023/12/09 01:58:09;;;;;;;8.27;2.87;;;;;;;;;;683259;28;4539;-68
2023/12/09 01:58:30;;;;;;;8.70;3.10;;;;;;;;;;686123;28;972;-70
2023/12/09 01:58:50;;;;;;;8.40;3.10;;;;;;;;;;686369;28;837;-69
2023/12/09 01:59:11;;;;;;;6.83;2.77;;;;;;;;;;689769;28;2354;-69
2023/12/09 01:59:31;;;;;;;6.80;2.77;;;;;;;;;;690526;28;915;-70
2023/12/09 01:59:51;;;;;;;7.30;2.90;;;;;;;;;;690263;28;785;-69
2023/12/09 02:00:12;;;;;;;6.28;3.03;;;;;;;;;;689383;28;1045;-68
2023/12/09 02:00:33;;;;;;;6.70;2.88;;;;;;;;;;690101;28;1227;-69
2023/12/09 02:00:53;;;;;;;8.37;2.90;;;;;;;;;;687352;28;920;-69
2023/12/09 02:01:14;;;;;;;8.13;2.83;;;;;;;;;;686068;28;4416;-68
2023/12/09 02:01:35;;;;;;;6.63;2.70;;;;;;;;;;688007;28;836;-69
2023/12/09 02:01:55;;;;;;;7.95;2.70;;;;;;;;;;687736;28;857;-69
2023/12/09 02:02:15;;;;;;;7.33;2.90;;;;;;;;;;684282;28;1573;-69
2023/12/09 02:02:36;;;;;;;7.82;2.90;;;;;;;;;;689138;28;829;-69
2023/12/09 02:02:56;;;;;;;6.40;2.70;;;;;;;;;;689271;28;861;-69
2023/12/09 02:03:17;;;;;;;7.00;2.87;;;;;;;;;;689486;28;2462;-69
2023/12/09 02:03:37;;;;;;;6.68;2.92;;;;;;;;;;691281;28;1018;-69
2023/12/09 02:03:58;;;;;;;7.83;3.30;;;;;;;;;;691723;28;804;-69
2023/12/09 02:04:18;;;;;;;7.35;2.97;;;;;;;;;;685465;28;4513;-68
2023/12/09 02:04:39;;;;;;;5.80;2.80;;;;;;;;;;687465;28;896;-69
2023/12/09 02:05:00;;;;;;;5.65;2.70;;;;;;;;;;687649;28;876;-69
2023/12/09 02:05:21;;;;;;;7.47;3.03;;;;;;;;;;684608;28;1574;-68
2023/12/09 02:05:42;;;;;;;9.20;3.22;;;;;;;;;;684367;28;873;-69
2023/12/09 02:06:02;;;;;;;6.65;3.10;;;;;;;;;;683051;28;1716;-69
2023/12/09 02:06:22;;;;;;;6.47;2.93;;;;;;;;;;687119;28;742;-69
2023/12/09 02:06:42;;;;;;;5.97;2.93;;;;;;;;;;686522;28;1035;-69
2023/12/09 02:07:03;;;;;;;5.80;2.67;;;;;;;;;;686333;28;4490;-71
2023/12/09 02:07:23;;;;;;;6.63;2.80;;;;;;;;;;690207;28;805;-69